Results: 2018 Salinas CAMTRI Triathlon American Cup | Elite Women
Salinas, Ecuador • 29 Apr, 2018
Pos First Name Last Name YOB Country Start
Num
Time Swim T1 Bike T2 Run
1 Elizabeth Bravo 1987 ECU 1 02:02:03 00:20:32 00:01:13 01:01:57 00:00:24 00:37:58
2 Diana Castillo 1993 COL 2 02:03:06 00:19:36 00:01:09 01:02:58 00:00:24 00:39:00
3 Maira Alejandra Vargas 1987 COL 8 02:03:43 00:20:08 00:01:08 01:04:45 00:00:25 00:37:19
4 Lina Maria Raga 1988 COL 18 02:03:50 00:19:38 00:01:12 01:02:51 00:00:25 00:39:45
5 Diana Vizcarra Montes 1990 ECU 6 02:05:56 00:20:10 00:01:15 01:04:25 00:00:36 00:39:31
6 Moira Miranda 1998 ARG 15 02:06:12 00:20:25 00:01:19 01:02:00 00:00:22 00:42:07
7 Leslie Amat Alvarez 1992 CUB 3 02:06:18 00:20:32 00:01:13 01:01:58 00:00:23 00:42:13
8 Sandra Hernandez 1982 COL 10 02:06:50 00:20:08 00:01:12 01:04:40 00:00:24 00:40:28
9 Romina Biagioli 1989 ARG 5 02:07:09 00:19:53 00:01:13 01:04:54 00:00:26 00:40:46
10 Daniela Ciara Vega 2000 CUB 14 02:07:54 00:19:54 00:01:20 01:04:48 00:00:27 00:41:28
11 Andrea Teran 1997 ECU 22 02:08:20 00:19:55 00:01:14 01:04:52 00:00:23 00:41:58
12 Genesis Carolina Ruiz Volcan 1993 VEN 12 02:09:58 00:20:10 00:01:15 01:04:34 00:00:27 00:43:33
13 Luma Guillen 1997 BRA 17 02:10:07 00:19:55 00:01:21 01:04:46 00:00:29 00:43:38
14 Macarena Salazar 1995 CHI 7 02:10:17 00:19:36 00:01:13 01:02:56 00:00:26 00:46:08
15 Alia Cardinale Villalobos 1985 CRC 16 02:10:41 00:20:09 00:01:11 01:04:41 00:00:28 00:44:14
16 Catalina Salazar 1997 CHI 9 02:11:12 00:20:31 00:01:15 01:07:49 00:00:26 00:41:14
17 Tania Rizo Coffigny 1997 CUB 19 02:11:32 00:20:08 00:01:13 01:04:41 00:00:26 00:45:06
18 Raquel Solis Guerrero 1998 CRC 4 02:15:27 00:20:32 00:01:14 01:07:51 00:00:28 00:45:23
19 Camila Romero Taveras 2000 DOM 20 02:16:23 00:20:54 00:01:18 01:07:24 00:00:27 00:46:22
LAP Isabel Berrezueta 1999 ECU 21 LAP 00:22:08 00:01:13 00:00:00 00:00:00 00:00:00
DNF Paula Jara 1997 ECU 11 DNF 00:20:10 00:01:15 01:08:14 00:00:24 00:00:00
Program notes:

Technical Delegate: Gustavo Neves/BRA, Head Referee: Pedro Vera/ECU. Competition Jury: Gustavo neves/BRA, Pedro Vera/ECU, Julio Ramirez/ECU
Distances: Swim 1500 m (2 laps9 Bike 40 Km (6 laps), Run 10 km.
Water temperature 24ºC. Air temperature 32ºC. Wetsuits not allowed.